Terminal Aerodrome Forecast
Issued by NWS Sioux Falls, SD

Home | Current Version | Previous Version | Graphics & Text | Print | Product List | Glossary On
Versions: 1 2 3 4 5 6 7 8 9 10 11 12 13 14 15 16 17 18 19 20 21 22 23 24
000
FTUS43 KFSD 220528
TAFFSD
TAF
KFSD 220528Z 2206/2306 17013G22KT P6SM OVC008
     FM220900 17012KT 5SM -RA BR BKN007 OVC012
     FM221400 18007KT P6SM OVC012
     FM221700 21008KT P6SM OVC008
     FM222100 VRB04KT 6SM -RASN OVC008
     FM230100 32005KT 4SM -SN OVC006=

USA.gov is the U.S. government's official web portal to all federal, state and local government web resources and services.